sensor_id;sensor_type;location;lat;lon;timestamp;temperature;humidity
53880;DHT22;39791;53.184;5.486;2023-05-07T00:00:33;16.00;99.90
53880;DHT22;39791;53.184;5.486;2023-05-07T00:02:59;15.70;99.90
53880;DHT22;39791;53.184;5.486;2023-05-07T00:05:25;15.60;99.90
53880;DHT22;39791;53.184;5.486;2023-05-07T00:07:51;16.10;99.90
53880;DHT22;39791;53.184;5.486;2023-05-07T00:10:18;15.80;99.90
53880;DHT22;39791;53.184;5.486;2023-05-07T00:12:43;15.90;99.90
53880;DHT22;39791;53.184;5.486;2023-05-07T00:15:10;15.80;99.90
53880;DHT22;39791;53.184;5.486;2023-05-07T00:17:35;15.50;99.90
53880;DHT22;39791;53.184;5.486;2023-05-07T00:20:02;15.80;99.90
53880;DHT22;39791;53.184;5.486;2023-05-07T00:22:29;15.80;99.90
53880;DHT22;39791;53.184;5.486;2023-05-07T00:24:55;15.40;99.90
53880;DHT22;39791;53.184;5.486;2023-05-07T00:27:21;15.70;99.90
53880;DHT22;39791;53.184;5.486;2023-05-07T00:29:47;15.90;99.90
53880;DHT22;39791;53.184;5.486;2023-05-07T00:32:12;15.70;99.90
53880;DHT22;39791;53.184;5.486;2023-05-07T00:34:38;15.70;99.90
53880;DHT22;39791;53.184;5.486;2023-05-07T00:37:05;17.20;99.90
53880;DHT22;39791;53.184;5.486;2023-05-07T00:39:33;15.80;99.90
53880;DHT22;39791;53.184;5.486;2023-05-07T00:41:58;15.30;99.90
53880;DHT22;39791;53.184;5.486;2023-05-07T00:44:24;15.80;99.90
53880;DHT22;39791;53.184;5.486;2023-05-07T00:46:50;15.40;99.90
53880;DHT22;39791;53.184;5.486;2023-05-07T00:49:16;15.80;99.90
53880;DHT22;39791;53.184;5.486;2023-05-07T00:51:42;15.40;99.90
53880;DHT22;39791;53.184;5.486;2023-05-07T00:54:08;15.30;99.90
53880;DHT22;39791;53.184;5.486;2023-05-07T00:56:34;15.80;99.90
53880;DHT22;39791;53.184;5.486;2023-05-07T00:59:02;15.30;99.90
53880;DHT22;39791;53.184;5.486;2023-05-07T01:01:28;15.30;99.90
53880;DHT22;39791;53.184;5.486;2023-05-07T01:03:54;15.10;99.90
53880;DHT22;39791;53.184;5.486;2023-05-07T01:06:21;15.60;99.90
53880;DHT22;39791;53.184;5.486;2023-05-07T01:08:48;15.70;99.90
53880;DHT22;39791;53.184;5.486;2023-05-07T01:11:16;15.00;99.90
53880;DHT22;39791;53.184;5.486;2023-05-07T01:13:43;15.10;99.90
53880;DHT22;39791;53.184;5.486;2023-05-07T01:16:09;15.10;99.90
53880;DHT22;39791;53.184;5.486;2023-05-07T01:18:35;15.70;99.90
53880;DHT22;39791;53.184;5.486;2023-05-07T01:21:01;15.20;99.90
53880;DHT22;39791;53.184;5.486;2023-05-07T01:23:29;15.20;99.90
53880;DHT22;39791;53.184;5.486;2023-05-07T01:25:55;15.80;99.90
53880;DHT22;39791;53.184;5.486;2023-05-07T01:28:21;15.80;99.90
53880;DHT22;39791;53.184;5.486;2023-05-07T01:30:51;15.40;99.90
53880;DHT22;39791;53.184;5.486;2023-05-07T01:33:20;14.90;99.90
53880;DHT22;39791;53.184;5.486;2023-05-07T01:35:49;15.80;99.90
53880;DHT22;39791;53.184;5.486;2023-05-07T01:38:16;14.90;99.90
53880;DHT22;39791;53.184;5.486;2023-05-07T01:40:42;15.10;99.90
53880;DHT22;39791;53.184;5.486;2023-05-07T01:43:09;14.90;99.90
53880;DHT22;39791;53.184;5.486;2023-05-07T01:45:36;15.80;99.90
53880;DHT22;39791;53.184;5.486;2023-05-07T01:48:06;16.10;99.90
53880;DHT22;39791;53.184;5.486;2023-05-07T01:50:33;15.80;99.90
53880;DHT22;39791;53.184;5.486;2023-05-07T01:52:58;14.90;99.90
53880;DHT22;39791;53.184;5.486;2023-05-07T01:55:24;15.80;99.90
53880;DHT22;39791;53.184;5.486;2023-05-07T01:57:50;15.80;99.90
53880;DHT22;39791;53.184;5.486;2023-05-07T02:00:16;15.00;99.90
53880;DHT22;39791;53.184;5.486;2023-05-07T02:02:42;15.90;99.90
53880;DHT22;39791;53.184;5.486;2023-05-07T02:05:08;15.40;99.90
53880;DHT22;39791;53.184;5.486;2023-05-07T02:07:34;15.80;99.90
53880;DHT22;39791;53.184;5.486;2023-05-07T02:09:59;15.50;99.90
53880;DHT22;39791;53.184;5.486;2023-05-07T02:12:25;14.90;99.90
53880;DHT22;39791;53.184;5.486;2023-05-07T02:14:50;16.30;99.90
53880;DHT22;39791;53.184;5.486;2023-05-07T02:17:16;14.80;99.90
53880;DHT22;39791;53.184;5.486;2023-05-07T02:19:42;15.70;99.90
53880;DHT22;39791;53.184;5.486;2023-05-07T02:22:09;15.10;99.90
53880;DHT22;39791;53.184;5.486;2023-05-07T02:24:34;15.30;99.90
53880;DHT22;39791;53.184;5.486;2023-05-07T02:27:00;15.60;99.90
53880;DHT22;39791;53.184;5.486;2023-05-07T02:29:25;15.50;99.90
53880;DHT22;39791;53.184;5.486;2023-05-07T02:31:51;15.30;99.90
53880;DHT22;39791;53.184;5.486;2023-05-07T02:34:18;14.90;99.90
53880;DHT22;39791;53.184;5.486;2023-05-07T02:36:44;15.10;99.90
53880;DHT22;39791;53.184;5.486;2023-05-07T02:39:11;14.80;99.90
53880;DHT22;39791;53.184;5.486;2023-05-07T02:41:37;15.90;99.90
53880;DHT22;39791;53.184;5.486;2023-05-07T02:44:03;15.30;99.90
53880;DHT22;39791;53.184;5.486;2023-05-07T02:46:28;14.90;99.90
53880;DHT22;39791;53.184;5.486;2023-05-07T02:48:54;14.90;99.90
53880;DHT22;39791;53.184;5.486;2023-05-07T02:51:20;15.20;99.90
53880;DHT22;39791;53.184;5.486;2023-05-07T02:53:46;15.80;99.90
53880;DHT22;39791;53.184;5.486;2023-05-07T02:56:12;15.20;99.90
53880;DHT22;39791;53.184;5.486;2023-05-07T02:58:37;14.80;99.90
53880;DHT22;39791;53.184;5.486;2023-05-07T03:01:05;14.70;99.90
53880;DHT22;39791;53.184;5.486;2023-05-07T03:03:31;16.50;99.90
53880;DHT22;39791;53.184;5.486;2023-05-07T03:05:56;14.90;99.90
53880;DHT22;39791;53.184;5.486;2023-05-07T03:08:22;15.60;99.90
53880;DHT22;39791;53.184;5.486;2023-05-07T03:10:48;15.40;99.90
53880;DHT22;39791;53.184;5.486;2023-05-07T03:13:13;14.70;99.90
53880;DHT22;39791;53.184;5.486;2023-05-07T03:15:39;14.80;99.90
53880;DHT22;39791;53.184;5.486;2023-05-07T03:18:04;15.70;99.90
53880;DHT22;39791;53.184;5.486;2023-05-07T03:20:31;15.80;99.90
53880;DHT22;39791;53.184;5.486;2023-05-07T03:22:56;15.70;99.90
53880;DHT22;39791;53.184;5.486;2023-05-07T03:25:22;14.70;99.90
53880;DHT22;39791;53.184;5.486;2023-05-07T03:27:47;16.60;99.90
53880;DHT22;39791;53.184;5.486;2023-05-07T03:30:13;14.60;99.90
53880;DHT22;39791;53.184;5.486;2023-05-07T03:32:39;15.60;99.90
53880;DHT22;39791;53.184;5.486;2023-05-07T03:35:05;14.70;99.90
53880;DHT22;39791;53.184;5.486;2023-05-07T03:37:30;14.70;99.90
53880;DHT22;39791;53.184;5.486;2023-05-07T03:39:56;15.60;99.90
53880;DHT22;39791;53.184;5.486;2023-05-07T03:42:21;15.50;99.90
53880;DHT22;39791;53.184;5.486;2023-05-07T03:44:47;14.70;99.90
53880;DHT22;39791;53.184;5.486;2023-05-07T03:47:13;14.60;99.90
53880;DHT22;39791;53.184;5.486;2023-05-07T03:49:39;15.60;99.90
53880;DHT22;39791;53.184;5.486;2023-05-07T03:52:05;14.90;99.90
53880;DHT22;39791;53.184;5.486;2023-05-07T03:54:30;15.10;99.90
53880;DHT22;39791;53.184;5.486;2023-05-07T03:56:56;14.60;99.90
53880;DHT22;39791;53.184;5.486;2023-05-07T03:59:22;15.40;99.90
53880;DHT22;39791;53.184;5.486;2023-05-07T04:01:47;14.60;99.90
53880;DHT22;39791;53.184;5.486;2023-05-07T04:04:14;15.60;99.90
53880;DHT22;39791;53.184;5.486;2023-05-07T04:06:40;14.60;99.90
53880;DHT22;39791;53.184;5.486;2023-05-07T04:09:05;14.90;99.90
53880;DHT22;39791;53.184;5.486;2023-05-07T04:11:31;15.50;99.90
53880;DHT22;39791;53.184;5.486;2023-05-07T04:13:57;15.10;99.90
53880;DHT22;39791;53.184;5.486;2023-05-07T04:16:23;15.50;99.90
53880;DHT22;39791;53.184;5.486;2023-05-07T04:18:48;14.60;99.90
53880;DHT22;39791;53.184;5.486;2023-05-07T04:21:21;15.30;99.90
53880;DHT22;39791;53.184;5.486;2023-05-07T04:23:47;15.20;99.90
53880;DHT22;39791;53.184;5.486;2023-05-07T04:26:13;14.80;99.90
53880;DHT22;39791;53.184;5.486;2023-05-07T04:28:39;15.00;99.90
53880;DHT22;39791;53.184;5.486;2023-05-07T04:31:06;15.40;99.90
53880;DHT22;39791;53.184;5.486;2023-05-07T04:33:32;14.50;99.90
53880;DHT22;39791;53.184;5.486;2023-05-07T04:35:58;14.50;99.90
53880;DHT22;39791;53.184;5.486;2023-05-07T04:38:30;14.60;99.90
53880;DHT22;39791;53.184;5.486;2023-05-07T04:40:58;14.30;99.90
53880;DHT22;39791;53.184;5.486;2023-05-07T04:43:23;14.40;99.90
53880;DHT22;39791;53.184;5.486;2023-05-07T04:45:51;14.70;99.90
53880;DHT22;39791;53.184;5.486;2023-05-07T04:48:16;14.60;99.90
53880;DHT22;39791;53.184;5.486;2023-05-07T04:50:46;14.40;99.90
53880;DHT22;39791;53.184;5.486;2023-05-07T04:53:12;15.30;99.90
53880;DHT22;39791;53.184;5.486;2023-05-07T04:55:38;14.90;99.90
53880;DHT22;39791;53.184;5.486;2023-05-07T04:58:03;14.40;99.90
53880;DHT22;39791;53.184;5.486;2023-05-07T05:00:30;15.40;99.90
53880;DHT22;39791;53.184;5.486;2023-05-07T05:02:56;14.30;99.90
53880;DHT22;39791;53.184;5.486;2023-05-07T05:05:21;15.10;99.90
53880;DHT22;39791;53.184;5.486;2023-05-07T05:07:47;15.20;99.90
53880;DHT22;39791;53.184;5.486;2023-05-07T05:10:12;14.30;99.90
53880;DHT22;39791;53.184;5.486;2023-05-07T05:12:38;14.30;99.90
53880;DHT22;39791;53.184;5.486;2023-05-07T05:15:04;15.20;99.90
53880;DHT22;39791;53.184;5.486;2023-05-07T05:17:30;14.40;99.90
53880;DHT22;39791;53.184;5.486;2023-05-07T05:19:56;15.10;99.90
53880;DHT22;39791;53.184;5.486;2023-05-07T05:22:21;15.00;99.90
53880;DHT22;39791;53.184;5.486;2023-05-07T05:24:47;15.10;99.90
53880;DHT22;39791;53.184;5.486;2023-05-07T05:27:13;15.10;99.90
53880;DHT22;39791;53.184;5.486;2023-05-07T05:29:38;14.40;99.90
53880;DHT22;39791;53.184;5.486;2023-05-07T05:32:04;14.30;99.90
53880;DHT22;39791;53.184;5.486;2023-05-07T05:34:29;14.70;99.90
53880;DHT22;39791;53.184;5.486;2023-05-07T05:36:55;14.30;99.90
53880;DHT22;39791;53.184;5.486;2023-05-07T05:39:21;14.80;99.90
53880;DHT22;39791;53.184;5.486;2023-05-07T05:41:48;15.50;99.90
53880;DHT22;39791;53.184;5.486;2023-05-07T05:44:13;14.90;99.90
53880;DHT22;39791;53.184;5.486;2023-05-07T05:46:39;14.70;99.90
53880;DHT22;39791;53.184;5.486;2023-05-07T05:49:05;14.40;99.90
53880;DHT22;39791;53.184;5.486;2023-05-07T05:51:30;14.50;99.90
53880;DHT22;39791;53.184;5.486;2023-05-07T05:53:56;15.10;99.90
53880;DHT22;39791;53.184;5.486;2023-05-07T05:56:22;14.50;99.90
53880;DHT22;39791;53.184;5.486;2023-05-07T05:58:47;14.40;99.90
53880;DHT22;39791;53.184;5.486;2023-05-07T06:01:13;14.50;99.90
53880;DHT22;39791;53.184;5.486;2023-05-07T06:03:38;14.40;99.90
53880;DHT22;39791;53.184;5.486;2023-05-07T06:06:04;14.40;99.90
53880;DHT22;39791;53.184;5.486;2023-05-07T06:08:30;15.30;99.90
53880;DHT22;39791;53.184;5.486;2023-05-07T06:10:55;15.30;99.90
53880;DHT22;39791;53.184;5.486;2023-05-07T06:13:21;14.50;99.90
53880;DHT22;39791;53.184;5.486;2023-05-07T06:15:48;14.70;99.90
53880;DHT22;39791;53.184;5.486;2023-05-07T06:18:14;14.70;99.90
53880;DHT22;39791;53.184;5.486;2023-05-07T06:20:39;14.60;99.90
53880;DHT22;39791;53.184;5.486;2023-05-07T06:23:05;15.40;99.90
53880;DHT22;39791;53.184;5.486;2023-05-07T06:25:30;14.70;99.90
53880;DHT22;39791;53.184;5.486;2023-05-07T06:27:56;15.20;99.90
53880;DHT22;39791;53.184;5.486;2023-05-07T06:30:21;15.10;99.90
53880;DHT22;39791;53.184;5.486;2023-05-07T06:32:47;14.80;99.90
53880;DHT22;39791;53.184;5.486;2023-05-07T06:35:13;14.90;99.90
53880;DHT22;39791;53.184;5.486;2023-05-07T06:37:38;14.80;99.90
53880;DHT22;39791;53.184;5.486;2023-05-07T06:40:05;15.20;99.90
53880;DHT22;39791;53.184;5.486;2023-05-07T06:42:32;15.10;99.90
53880;DHT22;39791;53.184;5.486;2023-05-07T06:44:58;15.00;99.90
53880;DHT22;39791;53.184;5.486;2023-05-07T06:47:23;15.60;99.90
53880;DHT22;39791;53.184;5.486;2023-05-07T06:49:49;15.60;99.90
53880;DHT22;39791;53.184;5.486;2023-05-07T06:52:15;14.90;99.90
53880;DHT22;39791;53.184;5.486;2023-05-07T06:54:40;15.60;99.90
53880;DHT22;39791;53.184;5.486;2023-05-07T06:57:06;15.60;99.90
53880;DHT22;39791;53.184;5.486;2023-05-07T06:59:32;15.60;99.90
53880;DHT22;39791;53.184;5.486;2023-05-07T07:01:57;15.70;99.90
53880;DHT22;39791;53.184;5.486;2023-05-07T07:04:23;15.50;99.90
53880;DHT22;39791;53.184;5.486;2023-05-07T07:06:49;15.50;99.90
53880;DHT22;39791;53.184;5.486;2023-05-07T07:09:16;15.90;99.90
53880;DHT22;39791;53.184;5.486;2023-05-07T07:11:42;15.50;99.90
53880;DHT22;39791;53.184;5.486;2023-05-07T07:14:08;15.80;99.90
53880;DHT22;39791;53.184;5.486;2023-05-07T07:16:33;16.00;99.90
53880;DHT22;39791;53.184;5.486;2023-05-07T07:18:59;16.10;99.90
53880;DHT22;39791;53.184;5.486;2023-05-07T07:21:25;15.70;99.90
53880;DHT22;39791;53.184;5.486;2023-05-07T07:23:50;15.70;99.90
53880;DHT22;39791;53.184;5.486;2023-05-07T07:26:17;15.60;99.90
53880;DHT22;39791;53.184;5.486;2023-05-07T07:28:46;16.10;99.90
53880;DHT22;39791;53.184;5.486;2023-05-07T07:31:12;16.20;99.90
53880;DHT22;39791;53.184;5.486;2023-05-07T07:33:38;15.90;99.90
53880;DHT22;39791;53.184;5.486;2023-05-07T07:36:05;16.10;99.90
53880;DHT22;39791;53.184;5.486;2023-05-07T07:38:31;16.50;99.90
53880;DHT22;39791;53.184;5.486;2023-05-07T07:40:57;16.30;99.90
53880;DHT22;39791;53.184;5.486;2023-05-07T07:43:22;16.00;99.90
53880;DHT22;39791;53.184;5.486;2023-05-07T07:45:49;16.00;99.90
53880;DHT22;39791;53.184;5.486;2023-05-07T07:48:15;16.00;99.90
53880;DHT22;39791;53.184;5.486;2023-05-07T07:50:40;16.30;99.90
53880;DHT22;39791;53.184;5.486;2023-05-07T07:53:06;16.00;99.90
53880;DHT22;39791;53.184;5.486;2023-05-07T07:55:31;16.50;99.90
53880;DHT22;39791;53.184;5.486;2023-05-07T07:57:57;16.30;99.90
53880;DHT22;39791;53.184;5.486;2023-05-07T08:00:23;16.50;99.90
53880;DHT22;39791;53.184;5.486;2023-05-07T08:02:48;16.40;99.90
53880;DHT22;39791;53.184;5.486;2023-05-07T08:05:14;16.70;99.90
53880;DHT22;39791;53.184;5.486;2023-05-07T08:07:40;16.40;99.90
53880;DHT22;39791;53.184;5.486;2023-05-07T08:10:06;16.60;99.90
53880;DHT22;39791;53.184;5.486;2023-05-07T08:12:32;16.70;99.90
53880;DHT22;39791;53.184;5.486;2023-05-07T08:14:57;16.80;99.90
53880;DHT22;39791;53.184;5.486;2023-05-07T08:17:23;16.90;99.90
53880;DHT22;39791;53.184;5.486;2023-05-07T08:19:48;16.80;99.90
53880;DHT22;39791;53.184;5.486;2023-05-07T08:22:14;17.10;99.90
53880;DHT22;39791;53.184;5.486;2023-05-07T08:24:40;17.10;99.90
53880;DHT22;39791;53.184;5.486;2023-05-07T08:27:05;17.50;99.90
53880;DHT22;39791;53.184;5.486;2023-05-07T08:29:31;17.70;99.90
53880;DHT22;39791;53.184;5.486;2023-05-07T08:31:56;17.90;99.90
53880;DHT22;39791;53.184;5.486;2023-05-07T08:34:22;17.80;99.90
53880;DHT22;39791;53.184;5.486;2023-05-07T08:36:48;18.10;99.90
53880;DHT22;39791;53.184;5.486;2023-05-07T08:39:17;18.10;99.90
53880;DHT22;39791;53.184;5.486;2023-05-07T08:41:48;18.50;99.90
53880;DHT22;39791;53.184;5.486;2023-05-07T08:44:14;18.70;99.90
53880;DHT22;39791;53.184;5.486;2023-05-07T08:46:41;18.80;99.90
53880;DHT22;39791;53.184;5.486;2023-05-07T08:49:08;19.10;99.90
53880;DHT22;39791;53.184;5.486;2023-05-07T08:51:34;19.20;99.90
53880;DHT22;39791;53.184;5.486;2023-05-07T08:54:01;18.90;99.90
53880;DHT22;39791;53.184;5.486;2023-05-07T08:56:27;19.40;99.90
53880;DHT22;39791;53.184;5.486;2023-05-07T08:58:52;19.00;99.90
53880;DHT22;39791;53.184;5.486;2023-05-07T09:01:22;18.80;99.90
53880;DHT22;39791;53.184;5.486;2023-05-07T09:03:47;18.90;99.90
53880;DHT22;39791;53.184;5.486;2023-05-07T09:06:13;19.20;99.90
53880;DHT22;39791;53.184;5.486;2023-05-07T09:08:39;19.10;99.90
53880;DHT22;39791;53.184;5.486;2023-05-07T09:11:05;19.10;99.90
53880;DHT22;39791;53.184;5.486;2023-05-07T09:13:30;19.10;99.90
53880;DHT22;39791;53.184;5.486;2023-05-07T09:15:56;19.20;99.90
53880;DHT22;39791;53.184;5.486;2023-05-07T09:18:24;19.10;99.90
53880;DHT22;39791;53.184;5.486;2023-05-07T09:20:50;19.00;99.90
53880;DHT22;39791;53.184;5.486;2023-05-07T09:23:16;19.00;99.90
53880;DHT22;39791;53.184;5.486;2023-05-07T09:25:42;19.50;99.90
53880;DHT22;39791;53.184;5.486;2023-05-07T09:28:07;19.40;99.90
53880;DHT22;39791;53.184;5.486;2023-05-07T09:30:35;19.50;99.90
53880;DHT22;39791;53.184;5.486;2023-05-07T09:33:03;19.60;99.90
53880;DHT22;39791;53.184;5.486;2023-05-07T09:35:29;19.50;99.90
53880;DHT22;39791;53.184;5.486;2023-05-07T09:37:56;19.60;33.30
53880;DHT22;39791;53.184;5.486;2023-05-07T09:40:26;19.70;1.00
53880;DHT22;39791;53.184;5.486;2023-05-07T09:42:52;19.80;99.90
53880;DHT22;39791;53.184;5.486;2023-05-07T09:45:26;20.00;99.90
53880;DHT22;39791;53.184;5.486;2023-05-07T09:47:55;19.70;95.50
53880;DHT22;39791;53.184;5.486;2023-05-07T09:50:27;19.40;99.90
53880;DHT22;39791;53.184;5.486;2023-05-07T09:52:54;19.20;20.80
53880;DHT22;39791;53.184;5.486;2023-05-07T09:55:21;19.10;1.00
53880;DHT22;39791;53.184;5.486;2023-05-07T09:57:50;19.10;85.70
53880;DHT22;39791;53.184;5.486;2023-05-07T10:00:18;19.10;99.90
53880;DHT22;39791;53.184;5.486;2023-05-07T10:02:46;19.10;99.90
53880;DHT22;39791;53.184;5.486;2023-05-07T10:05:14;19.20;99.90
53880;DHT22;39791;53.184;5.486;2023-05-07T10:07:41;19.40;1.00
53880;DHT22;39791;53.184;5.486;2023-05-07T10:10:08;19.50;1.00
53880;DHT22;39791;53.184;5.486;2023-05-07T10:12:35;19.60;99.90
53880;DHT22;39791;53.184;5.486;2023-05-07T10:15:13;19.80;99.90
53880;DHT22;39791;53.184;5.486;2023-05-07T10:17:40;20.00;1.00
53880;DHT22;39791;53.184;5.486;2023-05-07T10:20:06;19.90;1.00
53880;DHT22;39791;53.184;5.486;2023-05-07T10:22:44;20.10;99.90
53880;DHT22;39791;53.184;5.486;2023-05-07T10:25:19;20.20;99.90
53880;DHT22;39791;53.184;5.486;2023-05-07T10:27:47;20.10;1.00
53880;DHT22;39791;53.184;5.486;2023-05-07T10:33:17;19.90;98.90
53880;DHT22;39791;53.184;5.486;2023-05-07T10:35:46;20.00;99.90
53880;DHT22;39791;53.184;5.486;2023-05-07T10:38:13;20.20;99.90
53880;DHT22;39791;53.184;5.486;2023-05-07T10:40:39;20.20;99.90
53880;DHT22;39791;53.184;5.486;2023-05-07T10:43:05;20.20;1.00
53880;DHT22;39791;53.184;5.486;2023-05-07T10:45:31;20.80;1.00
53880;DHT22;39791;53.184;5.486;2023-05-07T10:48:17;20.20;99.90
53880;DHT22;39791;53.184;5.486;2023-05-07T10:50:43;20.20;99.90
53880;DHT22;39791;53.184;5.486;2023-05-07T10:53:21;19.90;1.00
53880;DHT22;39791;53.184;5.486;2023-05-07T10:58:44;20.20;99.90
53880;DHT22;39791;53.184;5.486;2023-05-07T11:01:09;20.10;1.00
53880;DHT22;39791;53.184;5.486;2023-05-07T11:04:13;20.20;1.00
53880;DHT22;39791;53.184;5.486;2023-05-07T11:06:40;20.20;1.00
53880;DHT22;39791;53.184;5.486;2023-05-07T11:09:05;20.20;1.00
53880;DHT22;39791;53.184;5.486;2023-05-07T11:11:50;20.20;1.00
53880;DHT22;39791;53.184;5.486;2023-05-07T11:17:06;20.10;99.90
53880;DHT22;39791;53.184;5.486;2023-05-07T11:19:49;20.10;99.90
53880;DHT22;39791;53.184;5.486;2023-05-07T11:22:44;20.40;1.00
53880;DHT22;39791;53.184;5.486;2023-05-07T11:25:10;20.40;1.00
53880;DHT22;39791;53.184;5.486;2023-05-07T11:27:36;20.60;39.20
53880;DHT22;39791;53.184;5.486;2023-05-07T11:30:02;20.70;99.90
53880;DHT22;39791;53.184;5.486;2023-05-07T11:32:29;20.60;1.00
53880;DHT22;39791;53.184;5.486;2023-05-07T11:34:56;20.70;99.50
53880;DHT22;39791;53.184;5.486;2023-05-07T11:37:23;20.90;1.00
53880;DHT22;39791;53.184;5.486;2023-05-07T11:39:49;20.80;99.90
53880;DHT22;39791;53.184;5.486;2023-05-07T11:42:31;20.90;1.00
53880;DHT22;39791;53.184;5.486;2023-05-07T11:44:57;20.90;99.10
53880;DHT22;39791;53.184;5.486;2023-05-07T11:47:24;20.80;19.00
53880;DHT22;39791;53.184;5.486;2023-05-07T11:49:52;20.80;84.60
53880;DHT22;39791;53.184;5.486;2023-05-07T11:52:19;20.90;81.20
53880;DHT22;39791;53.184;5.486;2023-05-07T11:54:56;21.00;99.90
53880;DHT22;39791;53.184;5.486;2023-05-07T11:57:26;21.00;11.30
53880;DHT22;39791;53.184;5.486;2023-05-07T11:59:55;21.00;1.00
53880;DHT22;39791;53.184;5.486;2023-05-07T12:02:21;20.90;99.90
53880;DHT22;39791;53.184;5.486;2023-05-07T12:04:47;20.90;99.90
53880;DHT22;39791;53.184;5.486;2023-05-07T12:07:15;21.00;99.90
53880;DHT22;39791;53.184;5.486;2023-05-07T12:09:45;21.00;99.90
53880;DHT22;39791;53.184;5.486;2023-05-07T12:12:11;21.20;99.90
53880;DHT22;39791;53.184;5.486;2023-05-07T12:14:42;21.10;99.90
53880;DHT22;39791;53.184;5.486;2023-05-07T12:17:08;21.10;99.90
53880;DHT22;39791;53.184;5.486;2023-05-07T12:19:36;21.10;99.90
53880;DHT22;39791;53.184;5.486;2023-05-07T12:22:07;21.20;15.40
53880;DHT22;39791;53.184;5.486;2023-05-07T12:24:49;21.10;1.00
53880;DHT22;39791;53.184;5.486;2023-05-07T12:27:16;21.10;99.90
53880;DHT22;39791;53.184;5.486;2023-05-07T12:29:49;21.10;99.90
53880;DHT22;39791;53.184;5.486;2023-05-07T12:32:17;21.00;99.90
53880;DHT22;39791;53.184;5.486;2023-05-07T12:34:49;21.10;99.90
53880;DHT22;39791;53.184;5.486;2023-05-07T12:37:14;21.30;99.90
53880;DHT22;39791;53.184;5.486;2023-05-07T12:40:11;21.20;99.90
53880;DHT22;39791;53.184;5.486;2023-05-07T12:42:37;21.20;99.90
53880;DHT22;39791;53.184;5.486;2023-05-07T12:45:16;21.20;25.20
53880;DHT22;39791;53.184;5.486;2023-05-07T12:47:45;21.30;1.00
53880;DHT22;39791;53.184;5.486;2023-05-07T12:50:11;21.30;1.00
53880;DHT22;39791;53.184;5.486;2023-05-07T12:52:37;21.40;1.00
53880;DHT22;39791;53.184;5.486;2023-05-07T12:55:07;21.30;1.00
53880;DHT22;39791;53.184;5.486;2023-05-07T12:57:40;21.30;1.00
53880;DHT22;39791;53.184;5.486;2023-05-07T13:00:06;21.30;1.00
53880;DHT22;39791;53.184;5.486;2023-05-07T13:02:39;21.50;99.90
53880;DHT22;39791;53.184;5.486;2023-05-07T13:05:06;21.60;99.90
53880;DHT22;39791;53.184;5.486;2023-05-07T13:07:32;21.40;99.90
53880;DHT22;39791;53.184;5.486;2023-05-07T13:09:57;21.60;99.90
53880;DHT22;39791;53.184;5.486;2023-05-07T13:12:23;21.60;99.90
53880;DHT22;39791;53.184;5.486;2023-05-07T13:14:49;21.70;99.90
53880;DHT22;39791;53.184;5.486;2023-05-07T13:17:14;22.00;99.90
53880;DHT22;39791;53.184;5.486;2023-05-07T13:19:40;21.70;99.90
53880;DHT22;39791;53.184;5.486;2023-05-07T13:22:05;21.90;97.60
53880;DHT22;39791;53.184;5.486;2023-05-07T13:24:31;21.60;90.50
53880;DHT22;39791;53.184;5.486;2023-05-07T13:26:56;21.70;99.90
53880;DHT22;39791;53.184;5.486;2023-05-07T13:29:22;21.70;99.90
53880;DHT22;39791;53.184;5.486;2023-05-07T13:31:54;21.80;40.40
53880;DHT22;39791;53.184;5.486;2023-05-07T13:34:20;21.90;57.40
53880;DHT22;39791;53.184;5.486;2023-05-07T13:36:45;22.10;4.40
53880;DHT22;39791;53.184;5.486;2023-05-07T13:39:11;21.90;1.00
53880;DHT22;39791;53.184;5.486;2023-05-07T13:41:36;21.80;1.00
53880;DHT22;39791;53.184;5.486;2023-05-07T13:44:02;21.80;1.00
53880;DHT22;39791;53.184;5.486;2023-05-07T13:46:27;21.80;1.00
53880;DHT22;39791;53.184;5.486;2023-05-07T13:48:55;21.70;99.90
53880;DHT22;39791;53.184;5.486;2023-05-07T13:51:20;21.80;99.90
53880;DHT22;39791;53.184;5.486;2023-05-07T13:53:47;21.80;99.90
53880;DHT22;39791;53.184;5.486;2023-05-07T13:56:12;21.70;99.90
53880;DHT22;39791;53.184;5.486;2023-05-07T13:58:39;22.00;99.90
53880;DHT22;39791;53.184;5.486;2023-05-07T14:01:05;21.80;99.90
53880;DHT22;39791;53.184;5.486;2023-05-07T14:03:30;21.70;99.90
53880;DHT22;39791;53.184;5.486;2023-05-07T14:05:58;21.70;99.90
53880;DHT22;39791;53.184;5.486;2023-05-07T14:08:25;22.10;99.90
53880;DHT22;39791;53.184;5.486;2023-05-07T14:10:51;21.60;99.90
53880;DHT22;39791;53.184;5.486;2023-05-07T14:13:17;21.90;99.90
53880;DHT22;39791;53.184;5.486;2023-05-07T14:15:43;21.70;99.90
53880;DHT22;39791;53.184;5.486;2023-05-07T14:18:12;21.60;99.90
53880;DHT22;39791;53.184;5.486;2023-05-07T14:20:38;21.60;99.90
53880;DHT22;39791;53.184;5.486;2023-05-07T14:23:03;21.60;99.90
53880;DHT22;39791;53.184;5.486;2023-05-07T14:25:29;21.50;99.90
53880;DHT22;39791;53.184;5.486;2023-05-07T14:27:55;21.50;99.90
53880;DHT22;39791;53.184;5.486;2023-05-07T14:30:20;21.60;99.90
53880;DHT22;39791;53.184;5.486;2023-05-07T14:32:47;21.70;99.90
53880;DHT22;39791;53.184;5.486;2023-05-07T14:35:13;22.00;99.90
53880;DHT22;39791;53.184;5.486;2023-05-07T14:37:38;21.70;99.90
53880;DHT22;39791;53.184;5.486;2023-05-07T14:40:05;21.60;99.90
53880;DHT22;39791;53.184;5.486;2023-05-07T14:42:30;21.60;99.90
53880;DHT22;39791;53.184;5.486;2023-05-07T14:44:56;21.50;99.90
53880;DHT22;39791;53.184;5.486;2023-05-07T14:47:21;21.50;99.90
53880;DHT22;39791;53.184;5.486;2023-05-07T14:49:47;21.60;99.90
53880;DHT22;39791;53.184;5.486;2023-05-07T14:52:12;21.50;99.90
53880;DHT22;39791;53.184;5.486;2023-05-07T14:54:38;21.40;99.90
53880;DHT22;39791;53.184;5.486;2023-05-07T14:57:04;21.40;99.90
53880;DHT22;39791;53.184;5.486;2023-05-07T14:59:30;21.30;99.90
53880;DHT22;39791;53.184;5.486;2023-05-07T15:01:56;21.30;99.90
53880;DHT22;39791;53.184;5.486;2023-05-07T15:04:23;21.30;99.90
53880;DHT22;39791;53.184;5.486;2023-05-07T15:06:50;21.20;99.90
53880;DHT22;39791;53.184;5.486;2023-05-07T15:09:15;21.20;99.90
53880;DHT22;39791;53.184;5.486;2023-05-07T15:11:41;21.20;99.90
53880;DHT22;39791;53.184;5.486;2023-05-07T15:14:06;21.10;99.90
53880;DHT22;39791;53.184;5.486;2023-05-07T15:16:32;21.10;99.90
53880;DHT22;39791;53.184;5.486;2023-05-07T15:18:58;21.10;99.90
53880;DHT22;39791;53.184;5.486;2023-05-07T15:21:24;21.10;99.90
53880;DHT22;39791;53.184;5.486;2023-05-07T15:23:49;21.10;99.90
53880;DHT22;39791;53.184;5.486;2023-05-07T15:26:15;21.10;99.90
53880;DHT22;39791;53.184;5.486;2023-05-07T15:28:40;21.10;1.00
53880;DHT22;39791;53.184;5.486;2023-05-07T15:31:06;21.20;1.00
53880;DHT22;39791;53.184;5.486;2023-05-07T15:33:32;21.30;1.00
53880;DHT22;39791;53.184;5.486;2023-05-07T15:35:58;21.30;1.00
53880;DHT22;39791;53.184;5.486;2023-05-07T15:38:25;21.30;1.00